Time;durP1;ratioP1;P1;durP2;ratioP2;P2;SDS_P1;SDS_P2;PMS_P1;PMS_P2;Temp;Humidity;BMP_temperature;BMP_pressure;BME280_temperature;BME280_humidity;BME280_pressure;Samples;Min_cycle;Max_cycle;Signal;HPM_P1;HPM_P2
2021/08/03 08:26:50;;;;;;;5.72;1.90;;;;;;;23.39;53.97;98949.00;5109432;27;20414;-75
2021/08/03 08:29:18;;;;;;;3.63;1.83;;;;;;;23.47;51.90;98961.66;5092109;28;20044;-88
2021/08/03 08:31:46;;;;;;;3.03;1.60;;;;;;;23.51;51.19;98968.03;5089495;28;20055;-90
2021/08/03 08:34:14;;;;;;;4.20;1.40;;;;;;;23.45;52.78;98964.88;5089401;28;20051;-88
2021/08/03 08:36:40;;;;;;;4.82;1.40;;;;;;;23.75;52.50;98969.09;5088601;28;20086;-75
2021/08/03 08:39:08;;;;;;;3.17;1.38;;;;;;;23.61;50.86;98964.38;5088012;28;20496;-91
2021/08/03 08:41:34;;;;;;;4.07;1.58;;;;;;;23.74;51.31;98969.50;5088475;28;20139;-91
2021/08/03 08:44:05;;;;;;;4.18;1.55;;;;;;;24.00;50.53;98960.50;5087686;28;20044;-92
2021/08/03 08:46:35;;;;;;;4.65;1.60;;;;;;;24.19;52.37;98961.16;5086301;28;20093;-80
2021/08/03 08:49:03;;;;;;;4.03;1.73;;;;;;;24.46;48.63;98959.28;5087145;28;20127;-76
2021/08/03 08:51:29;;;;;;;2.58;1.35;;;;;;;24.60;47.21;98959.16;5086944;28;20135;-75
2021/08/03 08:54:00;;;;;;;3.70;1.27;;;;;;;24.33;47.36;98952.63;5087553;28;20040;-78
2021/08/03 08:56:30;;;;;;;4.88;1.70;;;;;;;24.23;47.86;98964.69;5087147;28;20044;-84
2021/08/03 08:58:56;;;;;;;6.18;1.58;;;;;;;24.25;46.94;98970.66;5083906;28;20041;-79
2021/08/03 09:01:22;;;;;;;3.88;1.50;;;;;;;24.30;46.83;98976.56;5086030;28;20040;-81
2021/08/03 09:03:48;;;;;;;4.63;1.33;;;;;;;24.12;47.52;98967.59;5085177;28;20032;-76
2021/08/03 09:06:20;;;;;;;3.78;1.50;;;;;;;24.09;49.00;98980.38;5085677;28;20554;-85
2021/08/03 09:08:47;;;;;;;4.43;1.30;;;;;;;24.13;49.09;98988.72;5084918;28;20124;-75
2021/08/03 09:11:23;;;;;;;4.05;1.40;;;;;;;24.43;48.06;98982.47;5084976;28;20455;-86
2021/08/03 09:13:51;;;;;;;1.92;1.40;;;;;;;24.48;46.93;98975.66;5084457;28;20040;-78
2021/08/03 09:16:18;;;;;;;4.18;1.60;;;;;;;24.63;47.17;98982.66;5095768;28;20526;-84
2021/08/03 09:18:46;;;;;;;3.67;1.60;;;;;;;24.70;47.57;98968.63;5104623;28;20040;-85
2021/08/03 09:21:24;;;;;;;7.30;1.48;;;;;;;25.14;46.22;98977.31;5104389;28;20035;-83
2021/08/03 09:24:03;;;;;;;1.75;1.45;;;;;;;25.28;46.18;98991.09;5104090;28;20071;-85
2021/08/03 09:26:47;;;;;;;3.33;1.40;;;;;;;25.06;46.80;98984.94;5103705;28;20105;-79
2021/08/03 09:29:16;;;;;;;8.40;1.77;;;;;;;25.07;47.18;98987.34;5103718;28;20051;-81
2021/08/03 09:31:52;;;;;;;4.97;1.60;;;;;;;25.04;46.55;98992.97;5103201;28;20038;-75
2021/08/03 09:34:18;;;;;;;3.50;1.42;;;;;;;25.01;47.27;98986.22;5103492;28;20113;-84
2021/08/03 09:36:47;;;;;;;6.00;1.70;;;;;;;25.22;46.10;98987.19;5096815;28;20515;-76
2021/08/03 09:39:39;;;;;;;4.88;1.70;;;;;;;25.36;46.14;98994.59;5089049;28;20044;-84
2021/08/03 09:42:20;;;;;;;8.23;1.40;;;;;;;25.53;45.02;98991.56;5088937;28;20516;-84
2021/08/03 09:44:52;;;;;;;5.45;1.48;;;;;;;25.65;44.38;98998.56;5088738;28;20043;-76
2021/08/03 09:47:20;;;;;;;3.17;1.50;;;;;;;25.82;44.14;98993.13;5088656;28;20036;-86
2021/08/03 09:49:50;;;;;;;6.15;1.58;;;;;;;25.88;43.56;98997.84;5088083;28;20058;-76
2021/08/03 09:52:21;;;;;;;5.90;1.70;;;;;;;25.67;43.13;99006.53;5088416;28;20085;-76
2021/08/03 09:54:48;;;;;;;2.28;1.60;;;;;;;25.64;44.00;99001.78;5087747;28;20417;-85
2021/08/03 09:57:23;;;;;;;3.75;1.60;;;;;;;25.56;43.66;99006.69;5087856;28;20040;-76
2021/08/03 09:59:54;;;;;;;4.35;1.70;;;;;;;25.62;42.37;99009.81;5087072;28;20105;-76
2021/08/03 10:02:27;;;;;;;2.22;1.60;;;;;;;25.65;42.89;99009.75;5087643;28;20040;-86
2021/08/03 10:04:56;;;;;;;6.18;1.73;;;;;;;25.32;44.10;99011.41;5086906;28;20553;-77
2021/08/03 10:07:22;;;;;;;7.05;2.03;;;;;;;25.21;45.04;99011.56;5086641;28;20043;-85
2021/08/03 10:09:50;;;;;;;12.07;1.98;;;;;;;25.11;43.40;99020.84;5085950;28;20553;-78
2021/08/03 10:12:16;;;;;;;9.98;1.95;;;;;;;24.78;45.01;99025.25;5094798;28;20037;-76
2021/08/03 10:14:44;;;;;;;5.93;1.60;;;;;;;24.68;43.85;99020.56;5106382;28;20245;-83
2021/08/03 10:17:14;;;;;;;3.05;1.50;;;;;;;24.79;45.41;98998.88;5096247;28;20187;-79
2021/08/03 10:19:43;;;;;;;5.13;1.80;;;;;;;24.84;45.20;99001.22;5089103;28;20033;-79
2021/08/03 10:22:31;;;;;;;4.40;1.73;;;;;;;24.81;45.78;98999.25;5085337;28;20077;-76
2021/08/03 10:25:10;;;;;;;3.72;1.85;;;;;;;25.00;45.40;99004.22;5084735;28;20450;-78
2021/08/03 10:27:43;;;;;;;8.38;1.90;;;;;;;24.66;44.29;99006.19;5064235;28;20155;-82
2021/08/03 10:30:30;;;;;;;4.93;1.70;;;;;;;24.48;46.55;99015.56;5067857;28;20071;-78
2021/08/03 10:33:01;;;;;;;4.15;2.00;;;;;;;24.21;46.63;99025.78;5085866;28;20067;-75
2021/08/03 10:35:49;;;;;;;7.00;1.83;;;;;;;24.30;45.34;99029.66;5089692;28;20051;-75
2021/08/03 10:38:20;;;;;;;5.30;2.00;;;;;;;24.22;46.47;99022.56;5060674;28;20068;-77
2021/08/03 10:40:48;;;;;;;4.00;1.90;;;;;;;24.01;45.79;99019.97;5063209;28;20079;-75
2021/08/03 10:43:38;;;;;;;6.20;2.40;;;;;;;23.85;44.63;99026.03;5081492;28;20059;-75
2021/08/03 10:46:09;;;;;;;3.80;1.80;;;;;;;23.53;45.61;99029.78;5077092;28;20086;-77
2021/08/03 10:48:38;;;;;;;4.78;1.95;;;;;;;23.41;45.06;99024.66;5077268;28;20044;-76
2021/08/03 10:51:16;;;;;;;6.43;2.00;;;;;;;23.50;47.19;99027.03;5080741;28;20570;-75
2021/08/03 10:54:10;;;;;;;7.00;2.20;;;;;;;23.46;44.72;99029.84;5104783;27;20136;-76
2021/08/03 10:56:58;;;;;;;5.95;2.00;;;;;;;23.72;44.83;99027.72;5097159;28;20159;-75
2021/08/03 10:59:41;;;;;;;4.05;2.00;;;;;;;23.76;44.16;99011.75;5096535;28;20123;-76
2021/08/03 11:02:09;;;;;;;3.65;2.25;;;;;;;23.81;43.78;99014.13;5096567;28;20042;-76
2021/08/03 11:04:46;;;;;;;2.95;2.03;;;;;;;23.73;46.16;99020.94;5095759;28;20588;-78
2021/08/03 11:07:25;;;;;;;3.60;2.00;;;;;;;23.79;44.93;99024.88;5096005;28;20061;-74
2021/08/03 11:09:57;;;;;;;3.67;2.40;;;;;;;24.04;45.73;99013.53;5092040;28;20032;-75
2021/08/03 11:12:40;;;;;;;3.13;2.33;;;;;;;24.41;43.80;99014.84;5096035;28;20181;-81
2021/08/03 11:15:23;;;;;;;8.60;2.33;;;;;;;24.53;44.01;99017.88;5091937;28;20043;-73
2021/08/03 11:17:55;;;;;;;5.72;2.50;;;;;;;24.34;41.71;99024.84;5093596;28;20035;-74
2021/08/03 11:20:34;;;;;;;6.80;2.55;;;;;;;24.53;45.01;99025.50;5093592;28;20131;-82
2021/08/03 11:23:04;;;;;;;6.63;2.30;;;;;;;24.50;42.81;99031.91;5095012;28;20142;-80
2021/08/03 11:25:32;;;;;;;3.08;2.42;;;;;;;24.53;44.88;99026.28;5095201;28;20039;-74
2021/08/03 11:28:11;;;;;;;5.05;2.10;;;;;;;24.66;42.70;99032.13;5095216;28;20036;-75
2021/08/03 11:30:41;;;;;;;6.47;2.10;;;;;;;24.76;44.07;99017.25;5094422;28;20031;-74
2021/08/03 11:33:08;;;;;;;9.70;2.45;;;;;;;25.20;42.98;99031.56;5094324;28;20039;-79
2021/08/03 11:35:36;;;;;;;11.93;2.90;;;;;;;25.12;41.64;99032.88;5090460;28;20040;-73
2021/08/03 11:38:08;;;;;;;6.75;2.85;;;;;;;25.10;42.31;99016.50;5092263;28;20040;-74
2021/08/03 11:40:44;;;;;;;4.32;2.28;;;;;;;25.06;43.85;99030.47;5093772;28;20421;-74
2021/08/03 11:43:11;;;;;;;10.38;2.60;;;;;;;24.93;44.23;99034.25;5091774;28;20308;-81
2021/08/03 11:45:40;;;;;;;3.78;2.50;;;;;;;24.75;43.94;99023.28;5093399;28;20042;-80
2021/08/03 11:48:20;;;;;;;5.28;2.45;;;;;;;24.76;43.33;99027.66;5091454;28;20035;-73
2021/08/03 11:50:46;;;;;;;5.75;2.70;;;;;;;24.69;43.62;99038.91;5092209;28;20040;-73
2021/08/03 11:53:23;;;;;;;6.78;2.42;;;;;;;24.75;43.39;99015.69;5090960;28;20573;-74
2021/08/03 11:55:55;;;;;;;7.57;2.70;;;;;;;25.00;42.40;99009.00;5089053;28;20035;-79
2021/08/03 11:58:30;;;;;;;3.45;2.33;;;;;;;25.25;42.33;99029.09;5087895;28;20150;-73
2021/08/03 12:00:58;;;;;;;3.58;2.50;;;;;;;25.48;42.75;99027.59;5091731;28;20061;-75
2021/08/03 12:03:32;;;;;;;5.72;2.50;;;;;;;25.73;41.69;99024.47;5088349;28;20135;-76
2021/08/03 12:06:00;;;;;;;;;;;;;;;25.74;41.57;99024.03;5079194;28;20147;-75
2021/08/03 12:08:35;;;;;;;9.13;2.72;;;;;;;25.60;41.86;99015.84;5080054;28;19946;-76
2021/08/03 12:11:01;;;;;;;5.70;2.60;;;;;;;25.39;41.11;99011.31;5077701;28;20048;-80
2021/08/03 12:13:33;;;;;;;4.43;3.00;;;;;;;25.61;41.01;99025.03;5078733;28;20818;-87
2021/08/03 12:16:02;;;;;;;8.05;2.65;;;;;;;25.57;41.32;99019.47;5076674;28;20133;-76
2021/08/03 12:18:40;;;;;;;5.20;2.60;;;;;;;25.49;41.42;99009.59;5077324;28;20112;-84
2021/08/03 12:21:09;;;;;;;5.93;2.20;;;;;;;25.34;41.03;99014.59;5077232;28;20032;-78
2021/08/03 12:23:37;;;;;;;8.48;2.60;;;;;;;25.39;41.20;99019.72;5075510;28;20039;-75
2021/08/03 12:26:05;;;;;;;5.82;3.30;;;;;;;25.44;40.38;99016.47;5075611;28;20036;-75
2021/08/03 12:28:35;;;;;;;4.45;2.63;;;;;;;25.44;41.34;99013.66;5075582;28;20142;-76
2021/08/03 12:31:30;;;;;;;3.53;2.47;;;;;;;25.46;40.89;99014.03;5074642;28;20089;-76
2021/08/03 12:34:19;;;;;;;7.88;2.85;;;;;;;25.43;41.46;99009.28;5076382;28;20052;-83
2021/08/03 12:36:56;;;;;;;10.85;2.88;;;;;;;25.30;41.94;99008.28;5075987;28;20040;-81
2021/08/03 12:39:25;;;;;;;;;;;;;;;25.11;40.77;99020.06;5076977;28;20352;-81
2021/08/03 12:42:23;;;;;;;6.50;2.60;;;;;;;25.03;42.94;99014.56;5075112;28;20014;-76
2021/08/03 12:45:12;;;;;;;6.13;2.40;;;;;;;24.94;43.07;99019.06;5074848;28;20044;-76
2021/08/03 12:47:52;;;;;;;8.55;3.05;;;;;;;24.89;41.47;99016.72;5075055;28;20040;-76
2021/08/03 12:50:20;;;;;;;16.50;2.90;;;;;;;24.63;42.31;99018.22;5074937;28;20479;-75
2021/08/03 12:52:56;;;;;;;5.35;2.90;;;;;;;24.55;43.31;99017.50;5072949;28;20052;-80
2021/08/03 12:55:31;;;;;;;14.35;3.20;;;;;;;24.38;43.24;99019.22;5074221;28;20040;-77
2021/08/03 12:57:59;;;;;;;7.50;3.60;;;;;;;24.70;43.12;99006.94;5073785;28;20097;-77
2021/08/03 13:00:32;;;;;;;10.38;2.97;;;;;;;25.16;42.04;99014.81;5073624;28;20063;-80
2021/08/03 13:03:02;;;;;;;5.57;3.13;;;;;;;25.52;41.78;99022.75;5069304;28;20074;-76
2021/08/03 13:05:29;;;;;;;9.10;2.60;;;;;;;25.75;40.90;99002.41;5054400;28;20056;-81
2021/08/03 13:08:00;;;;;;;6.28;3.22;;;;;;;26.10;40.31;99009.50;5064710;28;20355;-76
2021/08/03 13:10:30;;;;;;;6.07;2.75;;;;;;;26.30;39.29;99017.16;5067335;28;20521;-75
2021/08/03 13:12:57;;;;;;;11.75;2.70;;;;;;;26.22;35.57;99011.69;5068366;28;20074;-83
2021/08/03 13:15:23;;;;;;;6.00;2.75;;;;;;;26.34;38.20;99009.50;5072444;28;20089;-75
2021/08/03 13:17:49;;;;;;;8.68;2.97;;;;;;;26.21;36.78;98995.28;5073676;28;20046;-75
2021/08/03 13:20:16;;;;;;;4.35;2.60;;;;;;;26.29;34.96;99012.75;5073495;28;20071;-75
2021/08/03 13:22:44;;;;;;;6.38;2.28;;;;;;;25.95;35.45;98997.72;5066633;28;20044;-82
2021/08/03 13:25:12;;;;;;;6.25;2.30;;;;;;;26.00;35.29;98993.66;5059679;28;20040;-75
2021/08/03 13:27:39;;;;;;;9.35;2.67;;;;;;;26.16;35.35;98987.41;5057477;28;20056;-75
2021/08/03 13:30:06;;;;;;;5.43;2.38;;;;;;;25.98;34.86;98982.88;5071879;28;20147;-75
2021/08/03 13:32:33;;;;;;;3.95;2.80;;;;;;;26.28;35.96;98989.56;5068056;28;20388;-76
2021/08/03 13:34:59;;;;;;;;;;;;;;;26.45;35.98;98990.47;5062252;28;20040;-77
2021/08/03 13:37:27;;;;;;;6.13;2.83;;;;;;;26.45;36.00;98987.66;5076471;28;19924;-75
2021/08/03 13:39:54;;;;;;;8.02;3.00;;;;;;;26.64;35.99;98992.53;5072589;28;20090;-77
2021/08/03 13:42:21;;;;;;;5.93;2.50;;;;;;;26.36;34.90;98988.22;5069535;28;20089;-75
2021/08/03 13:44:47;;;;;;;7.25;4.20;;;;;;;25.82;36.07;98985.53;5072204;28;20090;-75
2021/08/03 13:47:16;;;;;;;9.75;3.45;;;;;;;25.81;34.91;98967.16;5072089;28;20522;-75
2021/08/03 13:49:43;;;;;;;5.40;3.53;;;;;;;26.20;35.21;98988.13;5048982;28;21103;-90
2021/08/03 13:52:12;;;;;;;6.38;3.10;;;;;;;26.35;37.34;98972.63;5065739;28;20060;-74
2021/08/03 13:54:38;;;;;;;8.98;3.00;;;;;;;26.65;36.58;98984.91;5068787;28;20188;-75
2021/08/03 13:57:05;;;;;;;6.00;2.88;;;;;;;26.64;35.29;98972.91;5067465;28;20046;-76
2021/08/03 13:59:31;;;;;;;9.88;2.65;;;;;;;26.77;36.20;98975.88;5069001;28;20044;-72
2021/08/03 14:01:59;;;;;;;8.10;2.42;;;;;;;26.89;36.25;98977.25;5068411;28;20521;-72
2021/08/03 14:04:25;;;;;;;5.32;2.85;;;;;;;26.74;35.67;98979.53;5068198;28;20611;-76
2021/08/03 14:06:51;;;;;;;6.25;2.50;;;;;;;26.74;35.05;98973.91;5067791;28;20219;-72
2021/08/03 14:09:18;;;;;;;5.88;2.50;;;;;;;26.68;36.17;98979.22;5067937;28;20584;-74
2021/08/03 14:11:44;;;;;;;8.00;2.45;;;;;;;26.33;34.16;98980.69;5067904;28;20169;-74
2021/08/03 14:14:10;;;;;;;15.55;2.80;;;;;;;26.28;36.80;98985.97;5067315;28;20562;-73
2021/08/03 14:16:38;;;;;;;4.65;2.50;;;;;;;26.29;36.86;98971.56;5067823;28;20032;-76
2021/08/03 14:19:08;;;;;;;7.38;3.00;;;;;;;26.60;36.23;98985.41;5065255;28;20117;-74
2021/08/03 14:21:37;;;;;;;7.38;2.40;;;;;;;26.70;35.68;98988.00;5049316;28;20227;-74
2021/08/03 14:24:04;;;;;;;20.33;4.35;;;;;;;26.58;35.21;98988.63;5067653;28;20036;-74
2021/08/03 14:26:31;;;;;;;10.13;3.30;;;;;;;26.50;36.01;98987.19;5068825;28;20051;-75
2021/08/03 14:28:57;;;;;;;7.90;2.72;;;;;;;26.69;35.53;98994.06;5062345;28;20146;-82
2021/08/03 14:31:31;;;;;;;11.25;4.00;;;;;;;26.79;34.65;98995.03;5057180;28;20038;-74
2021/08/03 14:33:58;;;;;;;10.38;2.78;;;;;;;26.44;34.39;99000.09;5062715;28;20078;-74
2021/08/03 14:36:25;;;;;;;6.50;2.97;;;;;;;26.14;34.52;98996.22;5062397;28;20483;-75
2021/08/03 14:38:55;;;;;;;29.38;3.88;;;;;;;26.32;34.35;99001.50;5062130;28;20993;-75
2021/08/03 14:41:23;;;;;;;6.18;2.70;;;;;;;26.29;35.44;98990.34;5058771;28;20058;-79
2021/08/03 14:43:52;;;;;;;7.50;2.47;;;;;;;26.43;36.20;98996.50;5060210;28;20707;-75
2021/08/03 14:46:19;;;;;;;4.53;2.60;;;;;;;26.42;33.89;98989.31;5056589;28;20032;-74
2021/08/03 14:48:45;;;;;;;8.52;2.70;;;;;;;26.50;35.86;98989.22;5055013;28;20048;-74
2021/08/03 14:51:12;;;;;;;;;;;;;;;26.66;35.21;98989.31;5054715;28;20437;-75
2021/08/03 14:53:38;;;;;;;7.35;2.80;;;;;;;26.58;34.81;98985.06;5065165;28;19947;-74
2021/08/03 14:56:06;;;;;;;5.07;2.70;;;;;;;26.61;34.65;98982.19;5064027;28;20558;-74
2021/08/03 14:58:36;;;;;;;15.63;2.67;;;;;;;26.76;33.87;98996.72;5061384;28;20071;-74
2021/08/03 15:01:04;;;;;;;40.80;27.05;;;;;;;26.80;33.27;98997.44;5058769;28;20538;-73
2021/08/03 15:03:31;;;;;;;110.47;74.68;;;;;;;26.67;32.61;98990.88;5061033;28;20044;-80
2021/08/03 15:05:57;;;;;;;13.73;8.43;;;;;;;26.83;34.05;98990.97;5057010;28;20036;-74
2021/08/03 15:08:25;;;;;;;14.70;8.80;;;;;;;26.80;33.81;98991.03;5044641;28;20093;-86
2021/08/03 15:10:53;;;;;;;19.23;10.88;;;;;;;26.85;33.68;98996.91;5043234;28;20037;-77
2021/08/03 15:13:19;;;;;;;20.38;12.25;;;;;;;26.85;34.54;98994.13;5042545;28;20060;-74
2021/08/03 15:15:48;;;;;;;13.73;3.97;;;;;;;26.82;33.24;99005.41;5043594;28;20056;-79
2021/08/03 15:18:14;;;;;;;18.20;9.35;;;;;;;26.76;33.25;99002.34;5043592;28;20036;-74
2021/08/03 15:20:40;;;;;;;8.93;3.58;;;;;;;26.47;33.64;98991.66;5042033;28;20071;-76
2021/08/03 15:23:07;;;;;;;10.45;4.68;;;;;;;26.52;34.17;98995.16;5045607;28;20044;-74
2021/08/03 15:25:35;;;;;;;12.90;7.90;;;;;;;26.75;35.39;98997.94;5060872;28;20040;-85
2021/08/03 15:28:02;;;;;;;9.45;4.97;;;;;;;26.58;31.88;98987.84;5053400;28;20049;-86
2021/08/03 15:30:29;;;;;;;6.63;3.45;;;;;;;26.52;33.53;99006.38;5057154;28;20040;-74
2021/08/03 15:32:55;;;;;;;8.30;4.47;;;;;;;26.47;33.64;99008.47;5060259;28;20140;-74
2021/08/03 15:35:21;;;;;;;7.00;3.00;;;;;;;26.34;33.88;99007.47;5052016;28;20040;-73
2021/08/03 15:37:47;;;;;;;10.57;2.97;;;;;;;26.27;34.50;98992.81;5056903;28;20044;-92
2021/08/03 15:40:15;;;;;;;7.93;3.90;;;;;;;26.15;36.26;99008.19;5053761;28;20391;-75
2021/08/03 15:42:41;;;;;;;6.07;3.38;;;;;;;25.94;35.08;99007.34;5065032;28;20076;-85
2021/08/03 15:45:07;;;;;;;12.85;4.10;;;;;;;25.60;36.89;99009.47;5060685;28;20151;-79
2021/08/03 15:47:34;;;;;;;14.73;3.78;;;;;;;25.22;36.41;99003.97;5065767;28;20496;-79
2021/08/03 15:50:00;;;;;;;12.77;4.13;;;;;;;25.09;38.14;99012.88;5091784;28;20044;-73
2021/08/03 15:52:27;;;;;;;10.25;2.90;;;;;;;25.05;38.64;99014.94;5097349;28;20052;-77
2021/08/03 15:54:53;;;;;;;12.30;4.20;;;;;;;25.24;40.44;99023.94;5095451;28;20557;-76
2021/08/03 15:57:21;;;;;;;11.13;3.25;;;;;;;25.21;38.46;99019.97;5097133;28;20404;-79
2021/08/03 15:59:46;;;;;;;;;;;;;;;24.99;35.10;99027.78;5099123;28;20044;-89
2021/08/03 16:02:13;;;;;;;4.50;2.25;;;;;;;24.84;38.69;99021.56;5096056;28;19923;-78
2021/08/03 16:04:40;;;;;;;11.82;2.70;;;;;;;24.69;36.82;99022.13;5085256;28;20086;-82
2021/08/03 16:07:06;;;;;;;7.45;2.78;;;;;;;24.31;37.18;99028.47;5075193;28;20040;-92
2021/08/03 16:09:32;;;;;;;6.97;2.90;;;;;;;23.99;40.78;99025.94;5074845;28;20409;-82
2021/08/03 16:12:00;;;;;;;7.20;2.92;;;;;;;23.67;39.14;99038.09;5074632;28;20047;-80
2021/08/03 16:14:27;;;;;;;14.23;3.47;;;;;;;23.50;40.54;99030.59;5094779;28;20039;-74
2021/08/03 16:17:05;;;;;;;24.33;6.05;;;;;;;23.07;43.79;99024.44;5094314;28;20048;-85
2021/08/03 16:19:35;;;;;;;5.50;3.60;;;;;;;22.96;43.84;99035.63;5061032;28;20040;-78
2021/08/03 16:22:02;;;;;;;8.98;3.13;;;;;;;22.83;41.94;99034.44;5089597;28;20131;-91
2021/08/03 16:24:31;;;;;;;14.27;4.30;;;;;;;22.73;43.13;99042.44;5092257;28;20028;-77
2021/08/03 16:26:59;;;;;;;16.67;4.60;;;;;;;22.67;42.04;99044.03;5093601;28;20048;-77
2021/08/03 16:29:26;;;;;;;6.40;2.88;;;;;;;22.63;43.55;99050.81;5080765;28;20055;-76
2021/08/03 16:31:55;;;;;;;8.85;4.15;;;;;;;22.61;41.84;99055.97;5093216;28;20043;-91
2021/08/03 16:34:23;;;;;;;10.73;5.63;;;;;;;22.59;44.16;99052.81;5092890;28;20043;-91
2021/08/03 16:36:52;;;;;;;9.82;3.67;;;;;;;22.63;42.77;99051.59;5092444;28;20127;-81
2021/08/03 16:39:20;;;;;;;13.23;2.95;;;;;;;22.65;43.02;99056.75;5094052;28;20101;-77
2021/08/03 16:41:49;;;;;;;7.28;3.47;;;;;;;22.59;40.99;99047.25;5093604;28;20044;-84
2021/08/03 16:44:19;;;;;;;5.70;3.03;;;;;;;22.70;41.57;99054.38;5094188;28;20044;-80
2021/08/03 16:46:52;;;;;;;7.35;2.85;;;;;;;22.68;44.26;99051.22;5093851;28;20047;-76
2021/08/03 16:49:22;;;;;;;8.43;3.10;;;;;;;22.64;41.46;99069.13;5073727;28;20036;-86
2021/08/03 16:51:48;;;;;;;5.90;2.70;;;;;;;22.40;42.08;99048.47;5073270;28;20102;-76
2021/08/03 16:54:15;;;;;;;7.53;3.20;;;;;;;22.37;42.16;99050.03;5073552;28;20123;-74
2021/08/03 16:56:44;;;;;;;6.60;3.13;;;;;;;22.48;45.09;99063.94;5073577;28;20124;-77
2021/08/03 16:59:15;;;;;;;6.85;3.00;;;;;;;22.47;41.57;99087.44;5093094;28;20037;-76
2021/08/03 17:01:45;;;;;;;4.93;2.65;;;;;;;22.40;43.05;99090.22;5091069;28;20405;-93
2021/08/03 17:04:14;;;;;;;5.63;3.20;;;;;;;22.34;43.93;99087.03;5072671;28;20432;-77
2021/08/03 17:07:07;;;;;;;9.88;2.78;;;;;;;22.36;43.93;99100.59;5092003;28;20081;-76
2021/08/03 17:09:39;;;;;;;10.18;2.85;;;;;;;22.38;46.26;99098.19;5092311;28;20043;-76
2021/08/03 17:12:08;;;;;;;11.32;3.13;;;;;;;22.31;45.21;99085.06;5091410;28;20068;-76
2021/08/03 17:14:37;;;;;;;8.10;4.10;;;;;;;22.19;43.14;99093.81;5092853;28;20043;-78
2021/08/03 17:17:06;;;;;;;13.30;5.93;;;;;;;22.11;43.74;99095.75;5092293;28;20040;-78
2021/08/03 17:19:38;;;;;;;10.75;5.63;;;;;;;22.03;45.34;99108.06;5095455;28;20067;-77
2021/08/03 17:22:11;;;;;;;15.60;5.60;;;;;;;21.91;45.78;99108.44;5094319;28;20496;-75
2021/08/03 17:24:49;;;;;;;9.07;4.13;;;;;;;21.96;45.98;99122.00;5089158;28;21514;-77
2021/08/03 17:27:19;;;;;;;;;;;;;;;21.99;45.16;99118.41;5084843;28;20059;-77
2021/08/03 17:29:53;;;;;;;9.55;3.33;;;;;;;21.87;45.30;99119.56;5086550;28;19959;-78
2021/08/03 17:32:21;;;;;;;8.15;2.95;;;;;;;21.91;44.44;99137.06;5079888;28;20066;-76
2021/08/03 17:34:48;;;;;;;10.95;3.72;;;;;;;21.81;45.73;99123.91;5078324;28;20101;-77
2021/08/03 17:37:15;;;;;;;11.18;4.35;;;;;;;21.89;47.04;99136.69;5077010;28;20033;-76
2021/08/03 17:39:43;;;;;;;18.70;6.50;;;;;;;21.79;44.19;99129.09;5090273;28;20036;-77
2021/08/03 17:42:11;;;;;;;17.73;6.18;;;;;;;21.77;46.91;99125.91;5071190;28;20040;-75
2021/08/03 17:44:39;;;;;;;11.57;5.15;;;;;;;21.83;45.19;99154.16;5087587;28;20120;-75
2021/08/03 17:47:10;;;;;;;8.93;3.95;;;;;;;21.61;45.92;99151.28;5081968;28;20390;-75
2021/08/03 17:49:42;;;;;;;7.72;3.53;;;;;;;21.51;47.45;99152.03;5087268;28;20036;-77
2021/08/03 17:52:10;;;;;;;6.43;2.97;;;;;;;21.38;47.90;99148.00;5084311;28;20736;-79
2021/08/03 17:54:38;;;;;;;17.52;3.72;;;;;;;21.34;47.74;99143.22;5087806;28;20036;-81
2021/08/03 17:57:05;;;;;;;12.82;3.65;;;;;;;21.31;49.30;99154.28;5091134;28;20500;-75
2021/08/03 17:59:33;;;;;;;13.88;4.68;;;;;;;21.24;47.17;99163.38;5092310;28;20417;-75
2021/08/03 18:02:01;;;;;;;8.57;3.97;;;;;;;21.16;47.47;99155.38;5085721;28;20045;-77
2021/08/03 18:04:28;;;;;;;6.85;3.97;;;;;;;21.21;47.02;99169.72;5090116;28;20044;-75
2021/08/03 18:07:05;;;;;;;16.77;4.38;;;;;;;21.11;47.50;99153.78;5078556;28;20122;-88
2021/08/03 18:09:31;;;;;;;11.60;3.85;;;;;;;21.08;48.79;99154.56;5079347;28;20135;-76
2021/08/03 18:11:58;;;;;;;7.75;3.25;;;;;;;21.00;47.72;99152.94;5091634;28;20047;-75
2021/08/03 18:14:25;;;;;;;10.43;3.67;;;;;;;20.95;48.98;99161.59;5085119;28;20032;-85
2021/08/03 18:16:52;;;;;;;12.02;3.75;;;;;;;20.90;50.30;99165.56;5077439;28;20093;-74
2021/08/03 18:19:23;;;;;;;17.40;4.07;;;;;;;20.84;49.72;99167.88;5087478;28;20043;-76
2021/08/03 18:21:49;;;;;;;9.32;3.50;;;;;;;20.77;50.11;99165.06;5092691;28;20434;-77
2021/08/03 18:24:16;;;;;;;9.88;4.07;;;;;;;20.73;50.76;99157.88;5083667;28;20032;-89
2021/08/03 18:26:47;;;;;;;18.20;5.13;;;;;;;20.77;50.77;99170.63;5077368;28;20090;-81
2021/08/03 18:29:23;;;;;;;23.95;7.93;;;;;;;20.71;51.86;99168.59;5075327;28;20083;-92
2021/08/03 18:31:54;;;;;;;23.58;10.93;;;;;;;20.54;51.42;99162.50;5092812;28;20040;-92
2021/08/03 18:34:49;;;;;;;27.73;12.93;;;;;;;20.50;52.26;99166.41;5080616;28;20044;-93
2021/08/03 18:37:18;;;;;;;26.88;11.05;;;;;;;20.45;52.33;99169.53;5089120;28;20044;-79
2021/08/03 18:39:50;;;;;;;22.88;11.25;;;;;;;20.41;52.07;99167.50;5090432;28;20032;-86
2021/08/03 18:42:18;;;;;;;34.50;12.70;;;;;;;20.40;53.34;99163.13;5087667;28;20040;-89
2021/08/03 18:44:44;;;;;;;32.25;12.63;;;;;;;20.30;54.04;99169.41;5091338;28;20036;-82
2021/08/03 18:47:12;;;;;;;33.67;13.57;;;;;;;20.24;53.72;99165.38;5090522;28;20036;-76
2021/08/03 18:49:39;;;;;;;28.90;11.55;;;;;;;20.15;53.38;99162.09;5089342;28;20036;-76
2021/08/03 18:52:07;;;;;;;21.38;10.18;;;;;;;20.08;53.60;99164.81;5088770;28;20040;-77
2021/08/03 18:54:33;;;;;;;17.00;8.60;;;;;;;20.08;52.59;99170.34;5089072;28;20058;-93
2021/08/03 18:57:04;;;;;;;25.00;7.82;;;;;;;20.04;53.57;99162.00;5089061;28;20044;-86
2021/08/03 18:59:35;;;;;;;9.75;5.75;;;;;;;20.10;52.82;99170.78;5089453;28;20054;-75
2021/08/03 19:02:04;;;;;;;9.05;5.03;;;;;;;20.12;51.97;99168.41;5090296;28;20035;-76
2021/08/03 19:04:31;;;;;;;12.23;4.47;;;;;;;20.12;52.54;99179.50;5085086;28;20032;-75
2021/08/03 19:07:26;;;;;;;9.68;4.00;;;;;;;20.08;52.54;99170.34;5090030;28;20054;-79
2021/08/03 19:10:05;;;;;;;10.90;3.70;;;;;;;20.16;52.19;99180.34;5080599;28;20580;-78
2021/08/03 19:12:32;;;;;;;13.15;3.90;;;;;;;20.10;51.59;99179.91;5090118;28;20569;-78
2021/08/03 19:15:07;;;;;;;12.35;3.80;;;;;;;20.06;51.41;99178.25;5092714;28;20067;-77
2021/08/03 19:17:36;;;;;;;12.23;3.95;;;;;;;20.07;52.45;99194.53;5093238;28;20052;-77
2021/08/03 19:20:11;;;;;;;15.00;3.53;;;;;;;20.03;51.06;99196.44;5094965;28;20063;-80
2021/08/03 19:22:44;;;;;;;14.52;3.95;;;;;;;19.94;51.66;99196.75;5094746;28;20080;-92
2021/08/03 19:25:11;;;;;;;10.93;4.15;;;;;;;19.97;51.98;99195.22;5090855;28;20505;-80
2021/08/03 19:27:39;;;;;;;12.77;3.35;;;;;;;19.97;50.92;99195.22;5093632;28;20032;-76
2021/08/03 19:30:12;;;;;;;14.85;4.00;;;;;;;19.95;51.32;99192.81;5094287;28;20036;-77
2021/08/03 19:32:39;;;;;;;14.75;3.70;;;;;;;19.95;51.09;99197.56;5093384;28;20039;-78
2021/08/03 19:35:07;;;;;;;7.07;3.20;;;;;;;19.80;51.93;99182.72;5093684;28;20496;-78
2021/08/03 19:37:36;;;;;;;10.00;3.42;;;;;;;19.93;53.22;99194.34;5090692;28;20024;-92
2021/08/03 19:40:04;;;;;;;4.95;3.10;;;;;;;19.84;51.82;99194.66;5095128;28;20040;-91
2021/08/03 19:42:31;;;;;;;7.10;3.30;;;;;;;19.81;52.32;99192.66;5095810;28;20032;-83
2021/08/03 19:44:57;;;;;;;16.88;3.83;;;;;;;19.85;52.14;99201.81;5094999;28;20043;-81
2021/08/03 19:47:35;;;;;;;8.65;3.55;;;;;;;19.71;52.68;99201.63;5095341;28;20036;-80
2021/08/03 19:50:11;;;;;;;5.78;3.38;;;;;;;19.72;52.99;99208.78;5093861;28;20032;-96
2021/08/03 19:52:43;;;;;;;10.18;3.42;;;;;;;19.65;53.76;99203.94;5093811;28;20143;-80
2021/08/03 19:55:11;;;;;;;7.72;3.60;;;;;;;;;;5089190;28;20047;-80
2021/08/03 19:57:39;;;;;;;11.18;3.50;;;;;;;19.53;53.70;99204.13;5094347;28;20036;-80
2021/08/03 20:00:18;;;;;;;11.10;3.47;;;;;;;19.58;53.28;99216.88;5093889;28;20987;-77
2021/08/03 20:02:50;;;;;;;6.85;3.78;;;;;;;19.44;54.16;99204.44;5094442;28;20067;-77
2021/08/03 20:05:18;;;;;;;19.27;4.03;;;;;;;19.46;54.36;99221.47;5095412;28;20044;-89
2021/08/03 20:07:46;;;;;;;11.85;4.20;;;;;;;19.79;53.07;99221.94;5095500;28;20040;-89
2021/08/03 20:10:17;;;;;;;8.13;3.90;;;;;;;19.69;53.90;99224.19;5095059;28;20413;-89
2021/08/03 20:12:45;;;;;;;9.30;3.85;;;;;;;19.55;53.41;99206.53;5095116;28;20043;-81